createdAt,value
2023-01-17T00:01:59.374Z,1.38
2023-01-17T00:04:51.173Z,2.00
2023-01-17T00:07:43.679Z,1.73
2023-01-17T00:10:19.671Z,1.70
2023-01-17T00:12:54.588Z,1.80
2023-01-17T00:15:29.311Z,1.42
2023-01-17T00:18:03.608Z,1.38
2023-01-17T00:20:54.801Z,1.45
2023-01-17T00:23:46.918Z,1.42
2023-01-17T00:26:20.873Z,1.40
2023-01-17T00:28:53.321Z,1.20
2023-01-17T00:31:26.011Z,1.33
2023-01-17T00:33:58.407Z,1.50
2023-01-17T00:36:30.946Z,1.50
2023-01-17T00:39:04.748Z,1.17
2023-01-17T00:41:37.371Z,1.67
2023-01-17T00:44:28.284Z,1.17
2023-01-17T00:47:19.317Z,1.25
2023-01-17T00:50:10.313Z,1.30
2023-01-17T00:53:01.611Z,1.45
2023-01-17T00:55:53.810Z,1.30
2023-01-17T00:58:45.083Z,1.40
2023-01-17T01:01:36.374Z,1.10
2023-01-17T01:04:27.848Z,1.40
2023-01-17T01:07:19.403Z,1.50
2023-01-17T01:10:10.604Z,1.33
2023-01-17T01:13:02.877Z,1.33
2023-01-17T01:15:54.284Z,1.50
2023-01-17T01:18:45.444Z,1.80
2023-01-17T01:21:37.013Z,1.60
2023-01-17T01:24:28.233Z,1.70
2023-01-17T01:27:19.772Z,2.28
2023-01-17T01:30:12.007Z,2.10
2023-01-17T01:33:03.387Z,1.63
2023-01-17T01:35:38.047Z,2.30
2023-01-17T01:38:11.888Z,1.92
2023-01-17T01:40:47.753Z,1.75
2023-01-17T01:43:39.965Z,1.60
2023-01-17T01:46:19.280Z,1.80
2023-01-17T01:48:56.321Z,1.60
2023-01-17T01:51:36.118Z,1.90
2023-01-17T01:54:15.174Z,1.70
2023-01-17T01:59:24.841Z,1.60
2023-01-17T02:01:59.701Z,1.90
2023-01-17T02:04:33.449Z,1.80
2023-01-17T02:07:12.080Z,1.73
2023-01-17T02:12:21.786Z,1.92
2023-01-17T02:14:55.590Z,1.80
2023-01-17T02:17:46.926Z,2.13
2023-01-17T02:20:57.107Z,2.60
2023-01-17T02:23:54.451Z,2.47
2023-01-17T02:26:58.918Z,2.92
2023-01-17T02:30:04.736Z,3.15
2023-01-17T02:32:54.099Z,2.92
2023-01-17T02:35:35.148Z,3.25
2023-01-17T02:38:18.536Z,3.53
2023-01-17T02:40:56.598Z,3.30
2023-01-17T02:43:30.694Z,3.95
2023-01-17T02:46:04.745Z,3.80
2023-01-17T02:48:40.465Z,3.90
2023-01-17T02:51:41.259Z,3.53
2023-01-17T02:54:33.198Z,4.80
2023-01-17T02:57:24.594Z,4.60
2023-01-17T03:00:04.487Z,3.95
2023-01-17T03:02:48.352Z,4.40
2023-01-17T03:05:30.012Z,4.53
2023-01-17T03:08:04.702Z,4.40
2023-01-17T03:10:39.610Z,4.78
2023-01-17T03:13:13.227Z,4.88
2023-01-17T03:15:47.436Z,5.38
2023-01-17T03:18:21.219Z,5.65
2023-01-17T03:20:56.243Z,5.85
2023-01-17T03:23:30.012Z,5.25
2023-01-17T03:26:03.778Z,6.20
2023-01-17T03:28:37.271Z,5.68
2023-01-17T03:31:11.207Z,6.60
2023-01-17T03:33:44.638Z,6.93
2023-01-17T03:36:20.286Z,7.20
2023-01-17T03:38:53.788Z,6.55
2023-01-17T03:41:27.551Z,7.35
2023-01-17T03:44:01.031Z,7.93
2023-01-17T03:46:34.845Z,7.68
2023-01-17T03:49:08.247Z,7.80
2023-01-17T03:51:43.374Z,9.00
2023-01-17T03:54:16.863Z,9.07
2023-01-17T03:56:50.767Z,9.05
2023-01-17T03:59:24.265Z,8.38
2023-01-17T04:01:58.108Z,8.60
2023-01-17T04:04:31.692Z,8.45
2023-01-17T04:07:06.829Z,7.97
2023-01-17T04:09:40.415Z,8.60
2023-01-17T04:12:14.093Z,8.50
2023-01-17T04:14:48.102Z,9.40
2023-01-17T04:17:21.903Z,9.95
2023-01-17T04:19:55.442Z,9.25
2023-01-17T04:22:31.556Z,7.13
2023-01-17T04:25:05.585Z,5.50
2023-01-17T04:27:39.391Z,4.95
2023-01-17T04:30:13.657Z,3.65
2023-01-17T04:32:47.479Z,3.40
2023-01-17T04:35:21.111Z,3.20
2023-01-17T04:37:56.154Z,3.00
2023-01-17T04:40:29.669Z,3.92
2023-01-17T04:43:03.479Z,3.38
2023-01-17T04:45:38.687Z,4.25
2023-01-17T04:48:12.901Z,3.92
2023-01-17T04:50:46.316Z,3.90
2023-01-17T04:53:21.438Z,4.65
2023-01-17T04:55:55.051Z,3.78
2023-01-17T04:58:28.872Z,4.10
2023-01-17T05:01:04.111Z,3.55
2023-01-17T05:03:38.578Z,3.95
2023-01-17T05:06:12.509Z,4.32
2023-01-17T05:08:47.525Z,3.67
2023-01-17T05:11:21.058Z,3.80
2023-01-17T05:13:54.787Z,4.05
2023-01-17T05:16:28.511Z,4.53
2023-01-17T05:19:02.826Z,4.35
2023-01-17T05:21:36.456Z,5.30
2023-01-17T05:24:11.563Z,4.63
2023-01-17T05:26:45.106Z,5.00
2023-01-17T05:29:18.790Z,5.30
2023-01-17T05:31:52.268Z,4.90
2023-01-17T05:34:26.368Z,4.82
2023-01-17T05:37:00.314Z,5.35
2023-01-17T05:39:35.587Z,4.82
2023-01-17T05:42:09.385Z,6.25
2023-01-17T05:44:43.195Z,4.82
2023-01-17T05:47:16.787Z,5.53
2023-01-17T05:49:50.603Z,4.82
2023-01-17T05:52:24.441Z,5.40
2023-01-17T05:54:59.732Z,4.13
2023-01-17T05:57:33.459Z,4.28
2023-01-17T06:00:08.765Z,3.38
2023-01-17T06:02:43.091Z,2.60
2023-01-17T06:05:17.703Z,2.45
2023-01-17T06:07:51.593Z,1.45
2023-01-17T06:10:28.365Z,1.50
2023-01-17T06:13:05.100Z,0.65
2023-01-17T06:15:39.851Z,0.60
2023-01-17T06:18:15.503Z,0.52
2023-01-17T06:20:54.235Z,0.50
2023-01-17T06:23:28.249Z,0.43
2023-01-17T06:26:05.275Z,1.73
2023-01-17T06:28:38.850Z,0.50
2023-01-17T06:31:12.648Z,0.40
2023-01-17T06:33:46.169Z,0.40
2023-01-17T06:36:20.204Z,0.52
2023-01-17T06:38:53.937Z,0.50
2023-01-17T06:41:29.291Z,3.88
2023-01-17T06:44:03.061Z,0.40
2023-01-17T06:46:36.944Z,0.50
2023-01-17T06:49:10.421Z,1.30
2023-01-17T06:51:44.361Z,0.88
2023-01-17T06:54:18.856Z,0.43
2023-01-17T06:56:54.068Z,0.32
2023-01-17T06:59:27.690Z,0.82
2023-01-17T07:02:01.554Z,0.60
2023-01-17T07:04:35.747Z,3.85
2023-01-17T07:07:09.690Z,0.75
2023-01-17T07:09:45.327Z,1.17
2023-01-17T07:12:20.561Z,0.75
2023-01-17T07:14:54.113Z,1.30
2023-01-17T07:17:28.089Z,0.70
2023-01-17T07:20:01.661Z,0.82
2023-01-17T07:22:37.631Z,1.10
2023-01-17T07:25:11.658Z,1.40
2023-01-17T07:27:47.292Z,0.68
2023-01-17T07:30:21.735Z,1.17
2023-01-17T07:32:56.233Z,0.90
2023-01-17T07:35:29.791Z,1.20
2023-01-17T07:38:04.018Z,1.27
2023-01-17T07:40:42.014Z,0.73
2023-01-17T07:43:17.692Z,0.77
2023-01-17T07:45:52.220Z,1.17
2023-01-17T07:48:26.318Z,1.30
2023-01-17T07:51:00.553Z,2.15
2023-01-17T07:53:34.427Z,1.13
2023-01-17T07:56:09.244Z,1.10
2023-01-17T07:58:44.342Z,1.20
2023-01-17T08:01:18.162Z,1.42
2023-01-17T08:03:54.792Z,1.70
2023-01-17T08:06:30.056Z,0.77
2023-01-17T08:09:04.106Z,1.15
2023-01-17T08:11:37.802Z,1.23
2023-01-17T08:14:13.064Z,1.95
2023-01-17T08:16:46.762Z,1.17
2023-01-17T08:19:22.319Z,1.63
2023-01-17T08:21:55.883Z,1.25
2023-01-17T08:24:29.710Z,0.98
2023-01-17T08:27:03.305Z,1.00
2023-01-17T08:29:41.300Z,0.73
2023-01-17T08:32:15.042Z,0.85
2023-01-17T08:34:48.830Z,1.15
2023-01-17T08:37:22.429Z,0.90
2023-01-17T08:39:56.129Z,0.85
2023-01-17T08:42:30.560Z,0.88
2023-01-17T08:45:08.278Z,1.10
2023-01-17T08:47:42.086Z,1.30
2023-01-17T08:50:20.552Z,0.88
2023-01-17T08:53:00.944Z,1.08
2023-01-17T08:55:39.480Z,1.33
2023-01-17T08:58:14.092Z,1.40
2023-01-17T09:00:49.655Z,0.93
2023-01-17T09:03:23.408Z,1.42
2023-01-17T09:06:02.312Z,1.15
2023-01-17T09:08:36.615Z,1.80
2023-01-17T09:11:12.222Z,2.38
2023-01-17T09:13:45.821Z,0.80
2023-01-17T09:16:21.094Z,1.10
2023-01-17T09:18:55.318Z,1.20
2023-01-17T09:21:29.073Z,0.82
2023-01-17T09:24:02.683Z,1.50
2023-01-17T09:26:36.719Z,1.30
2023-01-17T09:29:10.259Z,2.83
2023-01-17T09:31:48.239Z,1.60
2023-01-17T09:34:24.217Z,1.73
2023-01-17T09:36:57.922Z,0.80
2023-01-17T09:39:31.374Z,1.30
2023-01-17T09:42:19.315Z,1.33
2023-01-17T09:44:53.573Z,1.00
2023-01-17T09:47:35.336Z,1.20
2023-01-17T09:50:21.595Z,0.85
2023-01-17T09:53:01.723Z,1.33
2023-01-17T09:55:41.343Z,0.85
2023-01-17T09:58:21.784Z,1.50
2023-01-17T10:01:05.035Z,1.30
2023-01-17T10:03:47.249Z,1.23
2023-01-17T10:06:44.340Z,1.00
2023-01-17T10:09:37.596Z,0.88
2023-01-17T10:12:22.355Z,1.33
2023-01-17T10:15:18.356Z,1.02
2023-01-17T10:17:58.748Z,0.98
2023-01-17T10:20:44.991Z,1.02
2023-01-17T10:23:30.654Z,1.58
2023-01-17T10:26:08.993Z,1.15
2023-01-17T10:28:48.693Z,1.63
2023-01-17T10:31:24.777Z,1.50
2023-01-17T10:34:03.643Z,1.30
2023-01-17T10:36:42.270Z,1.05
2023-01-17T10:39:20.356Z,1.90
2023-01-17T10:41:57.918Z,1.02
2023-01-17T10:44:36.617Z,1.00
2023-01-17T10:47:20.247Z,1.33
2023-01-17T10:49:57.884Z,1.20
2023-01-17T10:52:43.146Z,1.05
2023-01-17T10:55:32.597Z,1.25
2023-01-17T10:58:09.594Z,1.17
2023-01-17T11:00:49.193Z,1.25
2023-01-17T11:03:23.890Z,0.90
2023-01-17T11:06:19.536Z,1.10
2023-01-17T11:08:57.124Z,0.70
2023-01-17T11:11:32.799Z,1.08
2023-01-17T11:14:16.633Z,0.93
2023-01-17T11:17:01.036Z,0.80
2023-01-17T11:19:37.251Z,1.48
2023-01-17T11:22:16.866Z,0.70
2023-01-17T11:24:54.571Z,0.88
2023-01-17T11:27:30.654Z,1.10
2023-01-17T11:30:15.786Z,1.30
2023-01-17T11:32:53.787Z,0.98
2023-01-17T11:35:30.828Z,1.63
2023-01-17T11:38:07.615Z,1.75
2023-01-17T11:40:43.767Z,1.30
2023-01-17T11:43:21.624Z,1.67
2023-01-17T11:46:06.354Z,1.10
2023-01-17T11:48:40.212Z,1.23
2023-01-17T11:51:21.840Z,0.55
2023-01-17T11:54:04.683Z,0.82
2023-01-17T11:56:43.118Z,0.80
2023-01-17T11:59:31.313Z,0.75
2023-01-17T12:02:59.482Z,0.80
2023-01-17T12:05:51.410Z,0.82
2023-01-17T12:08:35.554Z,0.90
2023-01-17T12:11:17.576Z,0.93
2023-01-17T12:14:02.869Z,0.45
2023-01-17T12:16:51.416Z,0.75
2023-01-17T12:19:38.943Z,0.68
2023-01-17T12:22:28.678Z,0.75
2023-01-17T12:25:14.907Z,0.90
2023-01-17T12:28:01.614Z,0.82
2023-01-17T12:30:59.329Z,0.70
2023-01-17T12:33:45.790Z,0.90
2023-01-17T12:36:36.950Z,0.60
2023-01-17T12:39:14.269Z,0.73
2023-01-17T12:42:02.720Z,0.80
2023-01-17T12:44:48.929Z,0.90
2023-01-17T12:47:24.472Z,0.95
2023-01-17T12:50:07.195Z,0.60
2023-01-17T12:52:52.114Z,0.80
2023-01-17T12:55:36.869Z,0.65
2023-01-17T12:58:17.313Z,0.85
2023-01-17T13:00:57.933Z,0.95
2023-01-17T13:03:45.912Z,0.65
2023-01-17T13:06:27.042Z,0.50
2023-01-17T13:09:03.946Z,0.88
2023-01-17T13:11:44.132Z,0.65
2023-01-17T13:14:17.981Z,0.60
2023-01-17T13:16:57.966Z,0.68
2023-01-17T13:19:43.632Z,0.38
2023-01-17T13:22:21.846Z,1.10
2023-01-17T13:25:04.577Z,0.80
2023-01-17T13:28:05.648Z,0.85
2023-01-17T13:31:06.270Z,0.80
2023-01-17T13:33:56.689Z,1.20
2023-01-17T13:36:50.489Z,1.33
2023-01-17T13:39:43.662Z,0.85
2023-01-17T13:42:25.642Z,0.93
2023-01-17T13:44:59.262Z,0.80
2023-01-17T13:47:40.398Z,0.93
2023-01-17T13:50:47.827Z,0.70
2023-01-17T13:53:49.386Z,1.02
2023-01-17T13:56:35.449Z,0.85
2023-01-17T13:59:34.185Z,1.40
2023-01-17T14:02:36.571Z,1.00
2023-01-17T14:05:15.166Z,0.88
2023-01-17T14:07:54.105Z,1.20
2023-01-17T14:10:38.091Z,1.00
2023-01-17T14:13:34.544Z,1.00
2023-01-17T14:16:25.205Z,1.25
2023-01-17T14:18:58.983Z,1.15
2023-01-17T14:21:33.284Z,0.88
2023-01-17T14:24:16.035Z,0.80
2023-01-17T14:26:55.593Z,0.70
2023-01-17T14:29:52.136Z,0.88
2023-01-17T14:32:30.472Z,1.63
2023-01-17T14:35:05.668Z,1.08
2023-01-17T14:37:45.487Z,1.02
2023-01-17T14:40:21.750Z,0.90
2023-01-17T14:43:02.040Z,1.25
2023-01-17T14:45:37.946Z,1.30
2023-01-17T14:48:17.213Z,0.90
2023-01-17T14:53:27.958Z,2.35
2023-01-17T14:56:03.028Z,1.00
2023-01-17T14:58:37.565Z,0.77
2023-01-17T15:01:15.034Z,0.80
2023-01-17T15:03:51.760Z,0.60
2023-01-17T15:06:31.731Z,0.95
2023-01-17T15:09:11.282Z,0.88
2023-01-17T15:11:46.494Z,1.30
2023-01-17T15:14:24.139Z,0.95
2023-01-17T15:17:10.235Z,0.98
2023-01-17T15:19:45.399Z,1.20
2023-01-17T15:22:20.544Z,1.45
2023-01-17T15:24:54.855Z,0.85
2023-01-17T15:27:29.048Z,0.60
2023-01-17T15:30:04.226Z,1.08
2023-01-17T15:32:39.564Z,1.20
2023-01-17T15:35:18.327Z,1.00
2023-01-17T15:37:55.188Z,1.05
2023-01-17T15:40:31.203Z,1.00
2023-01-17T15:43:06.577Z,1.27
2023-01-17T15:45:40.356Z,1.00
2023-01-17T15:48:39.397Z,1.30
2023-01-17T15:51:14.287Z,1.10
2023-01-17T15:53:47.813Z,1.08
2023-01-17T15:56:29.573Z,1.60
2023-01-17T15:59:23.815Z,1.05
2023-01-17T16:01:59.116Z,0.85
2023-01-17T16:04:37.143Z,1.10
2023-01-17T16:07:19.512Z,1.40
2023-01-17T16:09:53.080Z,1.27
2023-01-17T16:12:27.157Z,0.90
2023-01-17T16:15:11.849Z,2.13
2023-01-17T16:17:49.197Z,1.30
2023-01-17T16:20:27.103Z,1.38
2023-01-17T16:23:00.848Z,1.80
2023-01-17T16:25:34.387Z,2.30
2023-01-17T16:28:08.278Z,1.58
2023-01-17T16:30:42.016Z,1.58
2023-01-17T16:33:16.669Z,1.73
2023-01-17T16:35:55.048Z,1.80
2023-01-17T16:38:28.983Z,1.88
2023-01-17T16:41:04.894Z,2.17
2023-01-17T16:43:38.627Z,2.20
2023-01-17T16:46:13.057Z,2.13
2023-01-17T16:48:46.942Z,2.15
2023-01-17T16:51:22.492Z,2.35
2023-01-17T16:53:56.465Z,2.10
2023-01-17T16:56:30.167Z,2.67
2023-01-17T16:59:04.072Z,2.78
2023-01-17T17:01:37.931Z,2.72
2023-01-17T17:04:12.976Z,3.15
2023-01-17T17:06:47.896Z,3.53
2023-01-17T17:09:22.366Z,3.40
2023-01-17T17:11:56.780Z,3.38
2023-01-17T17:14:30.585Z,3.13
2023-01-17T17:17:04.279Z,3.40
2023-01-17T17:19:38.109Z,3.15
2023-01-17T17:22:13.460Z,3.72
2023-01-17T17:24:47.189Z,4.65
2023-01-17T17:27:26.542Z,3.67
2023-01-17T17:30:00.327Z,3.70
2023-01-17T17:32:34.120Z,3.55
2023-01-17T17:35:08.576Z,4.38
2023-01-17T17:37:43.766Z,3.83
2023-01-17T17:40:17.846Z,3.33
2023-01-17T17:42:51.404Z,3.45
2023-01-17T17:45:25.150Z,3.83
2023-01-17T17:47:58.713Z,3.72
2023-01-17T17:50:32.548Z,3.72
2023-01-17T17:53:08.448Z,4.30
2023-01-17T17:55:42.162Z,4.18
2023-01-17T17:58:15.817Z,3.63
2023-01-17T18:00:49.638Z,3.55
2023-01-17T18:03:23.203Z,3.80
2023-01-17T18:06:02.203Z,4.30
2023-01-17T18:08:38.176Z,4.00
2023-01-17T18:11:14.983Z,3.60
2023-01-17T18:13:50.437Z,3.72
2023-01-17T18:16:26.579Z,4.32
2023-01-17T18:19:00.753Z,3.92
2023-01-17T18:21:37.955Z,5.13
2023-01-17T18:24:14.316Z,4.03
2023-01-17T18:26:49.848Z,3.95
2023-01-17T18:29:24.793Z,4.10
2023-01-17T18:31:58.621Z,4.45
2023-01-17T18:34:33.734Z,4.93
2023-01-17T18:37:07.736Z,4.47
2023-01-17T18:39:43.760Z,5.45
2023-01-17T18:42:18.396Z,4.32
2023-01-17T18:44:51.973Z,4.25
2023-01-17T18:47:25.752Z,6.00
2023-01-17T18:49:59.648Z,5.00
2023-01-17T18:52:35.062Z,4.53
2023-01-17T18:55:10.201Z,4.97
2023-01-17T18:57:44.465Z,5.10
2023-01-17T19:00:19.569Z,5.60
2023-01-17T19:02:53.690Z,5.15
2023-01-17T19:05:27.602Z,4.90
2023-01-17T19:08:01.323Z,6.03
2023-01-17T19:10:36.218Z,5.50
2023-01-17T19:13:10.397Z,5.47
2023-01-17T19:15:43.937Z,6.22
2023-01-17T19:18:17.846Z,6.07
2023-01-17T19:20:51.449Z,5.47
2023-01-17T19:23:25.144Z,4.97
2023-01-17T19:26:00.266Z,6.00
2023-01-17T19:28:38.060Z,6.15
2023-01-17T19:31:14.001Z,5.07
2023-01-17T19:33:49.480Z,5.63
2023-01-17T19:36:25.126Z,5.38
2023-01-17T19:39:05.024Z,5.53
2023-01-17T19:41:43.997Z,5.32
2023-01-17T19:44:17.759Z,6.32
2023-01-17T19:46:51.327Z,5.50
2023-01-17T19:49:25.256Z,6.30
2023-01-17T19:51:58.808Z,5.75
2023-01-17T19:54:32.671Z,5.65
2023-01-17T19:57:07.824Z,5.57
2023-01-17T19:59:41.696Z,5.72
2023-01-17T20:02:15.390Z,6.00
2023-01-17T20:04:49.474Z,4.95
2023-01-17T20:07:22.966Z,6.03
2023-01-17T20:09:57.636Z,5.20
2023-01-17T20:12:32.915Z,5.05
2023-01-17T20:15:07.628Z,6.82
2023-01-17T20:17:41.349Z,5.90
2023-01-17T20:20:15.777Z,6.22
2023-01-17T20:22:49.460Z,6.00
2023-01-17T20:25:23.234Z,5.13
2023-01-17T20:27:58.503Z,6.25
2023-01-17T20:30:32.973Z,6.00
2023-01-17T20:33:09.015Z,6.43
2023-01-17T20:35:42.782Z,6.65
2023-01-17T20:38:16.435Z,7.13
2023-01-17T20:40:55.144Z,7.00
2023-01-17T20:43:31.497Z,6.85
2023-01-17T20:46:05.880Z,5.78
2023-01-17T20:48:45.394Z,5.72
2023-01-17T20:51:20.729Z,5.78
2023-01-17T20:53:56.415Z,5.88
2023-01-17T20:56:34.413Z,6.00
2023-01-17T20:59:12.834Z,5.85
2023-01-17T21:01:47.047Z,6.22
2023-01-17T21:04:25.591Z,5.60
2023-01-17T21:06:59.476Z,5.03
2023-01-17T21:09:33.347Z,5.20
2023-01-17T21:12:07.227Z,5.53
2023-01-17T21:14:42.959Z,5.93
2023-01-17T21:17:17.075Z,5.45
2023-01-17T21:19:50.596Z,5.88
2023-01-17T21:22:24.319Z,4.70
2023-01-17T21:24:58.794Z,4.88
2023-01-17T21:27:32.619Z,5.68
2023-01-17T21:30:09.813Z,4.85
2023-01-17T21:32:43.685Z,4.90
2023-01-17T21:35:17.428Z,5.35
2023-01-17T21:37:51.400Z,5.60
2023-01-17T21:40:24.901Z,4.85
2023-01-17T21:42:58.657Z,5.75
2023-01-17T21:45:37.716Z,6.30
2023-01-17T21:48:13.146Z,6.82
2023-01-17T21:50:47.246Z,6.10
2023-01-17T21:53:21.021Z,6.18
2023-01-17T21:56:17.792Z,5.97
2023-01-17T21:58:54.557Z,6.78
2023-01-17T22:01:33.278Z,5.78
2023-01-17T22:04:07.120Z,6.38
2023-01-17T22:06:41.129Z,5.85
2023-01-17T22:09:15.072Z,5.40
2023-01-17T22:11:48.686Z,5.03
2023-01-17T22:14:22.542Z,5.32
2023-01-17T22:16:57.758Z,6.20
2023-01-17T22:19:31.445Z,5.10
2023-01-17T22:22:04.999Z,6.47
2023-01-17T22:24:40.191Z,4.85
2023-01-17T22:27:13.897Z,5.07
2023-01-17T22:29:47.735Z,5.28
2023-01-17T22:32:22.661Z,6.05
2023-01-17T22:34:56.390Z,5.82
2023-01-17T22:37:29.978Z,6.50
2023-01-17T22:40:04.988Z,8.05
2023-01-17T22:42:38.590Z,7.00
2023-01-17T22:45:12.790Z,7.50
2023-01-17T22:47:47.787Z,7.93
2023-01-17T22:50:23.392Z,7.80
2023-01-17T22:52:57.442Z,6.93
2023-01-17T22:55:31.444Z,8.38
2023-01-17T22:58:04.944Z,8.20
2023-01-17T23:00:38.727Z,8.02
2023-01-17T23:03:13.831Z,9.27
2023-01-17T23:05:47.637Z,8.35
2023-01-17T23:08:21.170Z,8.38
2023-01-17T23:11:12.422Z,10.55
2023-01-17T23:13:45.932Z,8.50
2023-01-17T23:16:37.146Z,9.82
2023-01-17T23:19:24.290Z,8.95
2023-01-17T23:22:19.003Z,10.77
2023-01-17T23:24:53.984Z,10.18
2023-01-17T23:27:47.006Z,10.02
2023-01-17T23:30:23.476Z,10.13
2023-01-17T23:32:59.314Z,9.70
2023-01-17T23:35:41.473Z,9.27
2023-01-17T23:38:29.962Z,8.75
2023-01-17T23:41:23.422Z,10.68
2023-01-17T23:43:59.325Z,10.10
2023-01-17T23:46:33.575Z,9.43
2023-01-17T23:49:07.339Z,10.25
2023-01-17T23:51:42.519Z,11.00
2023-01-17T23:54:16.288Z,10.68
2023-01-17T23:56:50.100Z,11.88
2023-01-17T23:59:23.984Z,12.00
